sensor_id;sensor_type;location;lat;lon;timestamp;P1;durP1;ratioP1;P2;durP2;ratioP2
69183;SDS011;56291;53.960;27.550;2023-03-21T05:11:26;15.90;;;8.40;;
69183;SDS011;56291;53.960;27.550;2023-03-21T05:13:59;20.67;;;9.13;;
69183;SDS011;56291;53.960;27.550;2023-03-21T05:16:25;20.38;;;9.40;;
69183;SDS011;56291;53.960;27.550;2023-03-21T05:18:55;17.48;;;9.23;;
69183;SDS011;56291;53.960;27.550;2023-03-21T05:21:24;18.00;;;9.35;;
69183;SDS011;56291;53.960;27.550;2023-03-21T05:23:53;21.60;;;11.23;;
69183;SDS011;56291;53.960;27.550;2023-03-21T05:26:22;20.60;;;10.82;;
69183;SDS011;56291;53.960;27.550;2023-03-21T05:28:49;19.90;;;10.40;;
69183;SDS011;56291;53.960;27.550;2023-03-21T05:31:16;17.60;;;10.10;;
69183;SDS011;56291;53.960;27.550;2023-03-21T05:33:43;20.20;;;10.55;;
69183;SDS011;56291;53.960;27.550;2023-03-21T05:36:10;22.27;;;10.10;;
69183;SDS011;56291;53.960;27.550;2023-03-21T05:38:37;22.60;;;10.13;;
69183;SDS011;56291;53.960;27.550;2023-03-21T05:41:07;17.48;;;9.43;;
69183;SDS011;56291;53.960;27.550;2023-03-21T05:43:33;15.88;;;9.32;;
69183;SDS011;56291;53.960;27.550;2023-03-21T05:45:59;15.43;;;8.85;;
69183;SDS011;56291;53.960;27.550;2023-03-21T05:48:25;16.60;;;8.90;;
69183;SDS011;56291;53.960;27.550;2023-03-21T05:50:52;15.80;;;8.93;;
69183;SDS011;56291;53.960;27.550;2023-03-21T05:53:18;18.10;;;9.18;;
69183;SDS011;56291;53.960;27.550;2023-03-21T05:55:44;14.73;;;8.63;;
69183;SDS011;56291;53.960;27.550;2023-03-21T05:58:11;14.75;;;8.40;;
69183;SDS011;56291;53.960;27.550;2023-03-21T06:00:37;15.40;;;8.60;;
69183;SDS011;56291;53.960;27.550;2023-03-21T06:03:06;15.43;;;8.27;;
69183;SDS011;56291;53.960;27.550;2023-03-21T06:05:32;13.95;;;8.35;;
69183;SDS011;56291;53.960;27.550;2023-03-21T06:07:58;14.60;;;8.57;;
69183;SDS011;56291;53.960;27.550;2023-03-21T06:13:14;13.70;;;7.07;;
69183;SDS011;56291;53.960;27.550;2023-03-21T06:15:43;15.45;;;8.23;;
69183;SDS011;56291;53.960;27.550;2023-03-21T06:18:09;18.30;;;8.75;;
69183;SDS011;56291;53.960;27.550;2023-03-21T06:20:38;14.55;;;7.47;;
69183;SDS011;56291;53.960;27.550;2023-03-21T06:23:04;13.52;;;7.30;;
69183;SDS011;56291;53.960;27.550;2023-03-21T06:25:33;14.95;;;7.78;;
69183;SDS011;56291;53.960;27.550;2023-03-21T06:28:03;12.63;;;6.93;;
69183;SDS011;56291;53.960;27.550;2023-03-21T06:30:54;13.60;;;7.03;;
69183;SDS011;56291;53.960;27.550;2023-03-21T06:33:20;13.10;;;7.18;;
69183;SDS011;56291;53.960;27.550;2023-03-21T06:35:53;11.15;;;7.10;;
69183;SDS011;56291;53.960;27.550;2023-03-21T06:38:20;14.80;;;6.88;;
69183;SDS011;56291;53.960;27.550;2023-03-21T06:40:49;18.90;;;9.25;;
69183;SDS011;56291;53.960;27.550;2023-03-21T06:43:16;12.30;;;6.95;;
69183;SDS011;56291;53.960;27.550;2023-03-21T06:45:42;15.88;;;7.75;;
69183;SDS011;56291;53.960;27.550;2023-03-21T06:48:11;13.52;;;7.65;;
69183;SDS011;56291;53.960;27.550;2023-03-21T06:50:37;19.65;;;9.07;;
69183;SDS011;56291;53.960;27.550;2023-03-21T06:53:04;13.48;;;7.80;;
69183;SDS011;56291;53.960;27.550;2023-03-21T06:55:30;16.95;;;7.82;;
69183;SDS011;56291;53.960;27.550;2023-03-21T06:57:56;15.82;;;7.00;;
69183;SDS011;56291;53.960;27.550;2023-03-21T07:00:23;15.15;;;7.65;;
69183;SDS011;56291;53.960;27.550;2023-03-21T07:02:49;19.38;;;8.40;;
69183;SDS011;56291;53.960;27.550;2023-03-21T07:05:18;16.10;;;8.02;;
69183;SDS011;56291;53.960;27.550;2023-03-21T07:07:44;12.07;;;6.55;;
69183;SDS011;56291;53.960;27.550;2023-03-21T07:10:11;15.68;;;7.05;;
69183;SDS011;56291;53.960;27.550;2023-03-21T07:12:37;12.40;;;6.22;;
69183;SDS011;56291;53.960;27.550;2023-03-21T07:15:03;11.23;;;5.93;;
69183;SDS011;56291;53.960;27.550;2023-03-21T07:17:31;10.48;;;5.40;;
69183;SDS011;56291;53.960;27.550;2023-03-21T07:19:58;9.48;;;5.07;;
69183;SDS011;56291;53.960;27.550;2023-03-21T07:22:24;16.52;;;6.95;;
69183;SDS011;56291;53.960;27.550;2023-03-21T07:24:50;11.52;;;5.18;;
69183;SDS011;56291;53.960;27.550;2023-03-21T07:27:17;13.48;;;6.20;;
69183;SDS011;56291;53.960;27.550;2023-03-21T07:29:43;11.95;;;5.80;;
69183;SDS011;56291;53.960;27.550;2023-03-21T07:32:11;13.23;;;6.32;;
69183;SDS011;56291;53.960;27.550;2023-03-21T07:34:37;10.27;;;5.05;;
69183;SDS011;56291;53.960;27.550;2023-03-21T07:37:03;10.77;;;5.18;;
69183;SDS011;56291;53.960;27.550;2023-03-21T07:39:31;8.85;;;4.93;;
69183;SDS011;56291;53.960;27.550;2023-03-21T07:41:58;11.05;;;5.03;;
69183;SDS011;56291;53.960;27.550;2023-03-21T07:44:26;9.52;;;5.30;;
69183;SDS011;56291;53.960;27.550;2023-03-21T07:46:53;10.85;;;4.93;;
69183;SDS011;56291;53.960;27.550;2023-03-21T07:49:20;10.20;;;4.75;;
69183;SDS011;56291;53.960;27.550;2023-03-21T07:51:46;7.53;;;4.38;;
69183;SDS011;56291;53.960;27.550;2023-03-21T07:54:12;8.20;;;4.25;;
69183;SDS011;56291;53.960;27.550;2023-03-21T07:56:38;7.90;;;4.47;;
69183;SDS011;56291;53.960;27.550;2023-03-21T07:59:05;6.97;;;4.40;;
69183;SDS011;56291;53.960;27.550;2023-03-21T08:01:32;10.80;;;4.75;;
69183;SDS011;56291;53.960;27.550;2023-03-21T08:03:58;9.27;;;4.57;;
69183;SDS011;56291;53.960;27.550;2023-03-21T08:06:26;12.75;;;5.47;;
69183;SDS011;56291;53.960;27.550;2023-03-21T08:08:53;9.00;;;4.28;;
69183;SDS011;56291;53.960;27.550;2023-03-21T08:11:28;7.90;;;4.32;;
69183;SDS011;56291;53.960;27.550;2023-03-21T08:13:55;6.47;;;3.42;;
69183;SDS011;56291;53.960;27.550;2023-03-21T08:16:22;7.55;;;3.97;;
69183;SDS011;56291;53.960;27.550;2023-03-21T08:18:48;6.53;;;3.83;;
69183;SDS011;56291;53.960;27.550;2023-03-21T08:21:15;8.95;;;3.78;;
69183;SDS011;56291;53.960;27.550;2023-03-21T08:23:41;6.53;;;3.60;;
69183;SDS011;56291;53.960;27.550;2023-03-21T08:26:07;7.25;;;3.55;;
69183;SDS011;56291;53.960;27.550;2023-03-21T08:28:34;6.30;;;3.35;;
69183;SDS011;56291;53.960;27.550;2023-03-21T08:31:05;6.90;;;3.75;;
69183;SDS011;56291;53.960;27.550;2023-03-21T08:33:32;7.35;;;3.78;;
69183;SDS011;56291;53.960;27.550;2023-03-21T08:35:59;6.38;;;3.42;;
69183;SDS011;56291;53.960;27.550;2023-03-21T08:38:26;7.60;;;4.13;;
69183;SDS011;56291;53.960;27.550;2023-03-21T08:40:54;6.53;;;4.05;;
69183;SDS011;56291;53.960;27.550;2023-03-21T08:43:21;6.55;;;3.60;;
69183;SDS011;56291;53.960;27.550;2023-03-21T08:45:50;8.48;;;4.32;;
69183;SDS011;56291;53.960;27.550;2023-03-21T08:48:17;8.00;;;4.13;;
69183;SDS011;56291;53.960;27.550;2023-03-21T08:50:43;10.10;;;4.80;;
69183;SDS011;56291;53.960;27.550;2023-03-21T08:53:09;6.13;;;3.40;;
69183;SDS011;56291;53.960;27.550;2023-03-21T08:55:36;7.13;;;2.97;;
69183;SDS011;56291;53.960;27.550;2023-03-21T08:58:02;5.78;;;3.28;;
69183;SDS011;56291;53.960;27.550;2023-03-21T09:00:28;4.60;;;3.03;;
69183;SDS011;56291;53.960;27.550;2023-03-21T09:02:54;3.88;;;2.70;;
69183;SDS011;56291;53.960;27.550;2023-03-21T09:05:22;5.13;;;2.78;;
69183;SDS011;56291;53.960;27.550;2023-03-21T09:07:50;5.40;;;2.78;;
69183;SDS011;56291;53.960;27.550;2023-03-21T09:10:18;5.95;;;3.20;;
69183;SDS011;56291;53.960;27.550;2023-03-21T09:12:45;5.30;;;2.90;;
69183;SDS011;56291;53.960;27.550;2023-03-21T09:15:13;3.85;;;2.33;;
69183;SDS011;56291;53.960;27.550;2023-03-21T09:17:40;5.68;;;2.72;;
69183;SDS011;56291;53.960;27.550;2023-03-21T09:20:08;5.47;;;2.60;;
69183;SDS011;56291;53.960;27.550;2023-03-21T09:22:46;5.03;;;2.53;;
69183;SDS011;56291;53.960;27.550;2023-03-21T09:25:14;5.28;;;2.75;;
69183;SDS011;56291;53.960;27.550;2023-03-21T09:27:40;3.78;;;2.25;;
69183;SDS011;56291;53.960;27.550;2023-03-21T09:30:10;5.70;;;2.67;;
69183;SDS011;56291;53.960;27.550;2023-03-21T09:32:37;4.47;;;2.88;;
69183;SDS011;56291;53.960;27.550;2023-03-21T09:35:04;4.47;;;2.60;;
69183;SDS011;56291;53.960;27.550;2023-03-21T09:37:31;3.60;;;2.13;;
69183;SDS011;56291;53.960;27.550;2023-03-21T09:39:58;4.45;;;2.72;;
69183;SDS011;56291;53.960;27.550;2023-03-21T09:42:37;3.75;;;2.38;;
69183;SDS011;56291;53.960;27.550;2023-03-21T09:48:08;3.53;;;2.35;;
69183;SDS011;56291;53.960;27.550;2023-03-21T09:50:44;4.78;;;2.60;;
69183;SDS011;56291;53.960;27.550;2023-03-21T09:53:12;5.07;;;2.63;;
69183;SDS011;56291;53.960;27.550;2023-03-21T09:55:51;4.82;;;2.67;;
69183;SDS011;56291;53.960;27.550;2023-03-21T09:58:40;3.60;;;2.20;;
69183;SDS011;56291;53.960;27.550;2023-03-21T10:01:15;3.50;;;2.20;;
69183;SDS011;56291;53.960;27.550;2023-03-21T10:04:01;4.28;;;2.60;;
69183;SDS011;56291;53.960;27.550;2023-03-21T10:06:30;4.32;;;2.38;;
69183;SDS011;56291;53.960;27.550;2023-03-21T10:09:01;3.70;;;2.60;;
69183;SDS011;56291;53.960;27.550;2023-03-21T10:11:46;4.22;;;2.38;;
69183;SDS011;56291;53.960;27.550;2023-03-21T10:16:49;4.38;;;2.40;;
69183;SDS011;56291;53.960;27.550;2023-03-21T10:19:21;4.60;;;2.80;;
69183;SDS011;56291;53.960;27.550;2023-03-21T10:21:48;4.35;;;2.75;;
69183;SDS011;56291;53.960;27.550;2023-03-21T10:24:19;3.40;;;2.35;;
69183;SDS011;56291;53.960;27.550;2023-03-21T10:26:49;4.10;;;2.75;;
69183;SDS011;56291;53.960;27.550;2023-03-21T10:29:16;4.75;;;2.72;;
69183;SDS011;56291;53.960;27.550;2023-03-21T10:31:46;5.82;;;3.20;;
69183;SDS011;56291;53.960;27.550;2023-03-21T10:34:15;5.00;;;2.83;;
69183;SDS011;56291;53.960;27.550;2023-03-21T10:36:45;5.53;;;2.70;;
69183;SDS011;56291;53.960;27.550;2023-03-21T10:39:19;5.72;;;2.80;;
69183;SDS011;56291;53.960;27.550;2023-03-21T10:41:46;5.00;;;3.00;;
69183;SDS011;56291;53.960;27.550;2023-03-21T10:44:13;6.65;;;2.92;;
69183;SDS011;56291;53.960;27.550;2023-03-21T10:46:52;6.40;;;3.28;;
69183;SDS011;56291;53.960;27.550;2023-03-21T10:49:20;5.28;;;3.30;;
69183;SDS011;56291;53.960;27.550;2023-03-21T10:51:48;4.55;;;2.63;;
69183;SDS011;56291;53.960;27.550;2023-03-21T10:54:19;4.30;;;2.58;;
69183;SDS011;56291;53.960;27.550;2023-03-21T10:56:50;4.57;;;3.03;;
69183;SDS011;56291;53.960;27.550;2023-03-21T10:59:23;4.40;;;2.63;;
69183;SDS011;56291;53.960;27.550;2023-03-21T11:01:52;4.93;;;2.88;;
69183;SDS011;56291;53.960;27.550;2023-03-21T11:04:26;5.43;;;3.08;;
69183;SDS011;56291;53.960;27.550;2023-03-21T11:06:55;8.40;;;4.00;;
69183;SDS011;56291;53.960;27.550;2023-03-21T11:12:16;6.63;;;3.25;;
69183;SDS011;56291;53.960;27.550;2023-03-21T11:14:52;6.30;;;3.35;;
69183;SDS011;56291;53.960;27.550;2023-03-21T11:17:19;5.38;;;2.90;;
69183;SDS011;56291;53.960;27.550;2023-03-21T11:22:21;3.67;;;2.40;;
69183;SDS011;56291;53.960;27.550;2023-03-21T11:25:00;4.35;;;2.55;;
69183;SDS011;56291;53.960;27.550;2023-03-21T11:27:30;6.40;;;3.22;;
69183;SDS011;56291;53.960;27.550;2023-03-21T11:29:57;5.22;;;3.15;;
69183;SDS011;56291;53.960;27.550;2023-03-21T11:34:59;4.03;;;2.25;;
69183;SDS011;56291;53.960;27.550;2023-03-21T11:37:41;6.40;;;3.38;;
69183;SDS011;56291;53.960;27.550;2023-03-21T11:40:18;8.52;;;3.40;;
69183;SDS011;56291;53.960;27.550;2023-03-21T11:42:59;5.53;;;2.95;;
69183;SDS011;56291;53.960;27.550;2023-03-21T11:45:35;7.78;;;3.80;;
69183;SDS011;56291;53.960;27.550;2023-03-21T11:48:06;9.20;;;4.38;;
69183;SDS011;56291;53.960;27.550;2023-03-21T11:50:45;22.33;;;9.57;;
69183;SDS011;56291;53.960;27.550;2023-03-21T11:55:59;7.13;;;3.85;;
69183;SDS011;56291;53.960;27.550;2023-03-21T12:06:59;5.07;;;3.28;;
69183;SDS011;56291;53.960;27.550;2023-03-21T12:09:39;4.97;;;2.90;;
69183;SDS011;56291;53.960;27.550;2023-03-21T12:12:12;5.38;;;3.33;;
69183;SDS011;56291;53.960;27.550;2023-03-21T12:17:17;5.10;;;2.78;;
69183;SDS011;56291;53.960;27.550;2023-03-21T12:31:04;5.32;;;2.65;;
69183;SDS011;56291;53.960;27.550;2023-03-21T12:39:27;4.30;;;2.30;;
69183;SDS011;56291;53.960;27.550;2023-03-21T12:44:42;3.85;;;2.40;;
69183;SDS011;56291;53.960;27.550;2023-03-21T12:47:22;3.53;;;2.70;;
69183;SDS011;56291;53.960;27.550;2023-03-21T12:49:56;4.90;;;2.70;;
69183;SDS011;56291;53.960;27.550;2023-03-21T12:52:42;3.75;;;2.25;;
69183;SDS011;56291;53.960;27.550;2023-03-21T12:55:22;3.75;;;2.30;;
69183;SDS011;56291;53.960;27.550;2023-03-21T12:57:57;6.07;;;2.47;;
69183;SDS011;56291;53.960;27.550;2023-03-21T13:00:35;5.70;;;2.50;;
69183;SDS011;56291;53.960;27.550;2023-03-21T13:03:21;4.38;;;2.38;;
69183;SDS011;56291;53.960;27.550;2023-03-21T13:05:54;6.90;;;3.10;;
69183;SDS011;56291;53.960;27.550;2023-03-21T13:08:24;4.93;;;2.97;;
69183;SDS011;56291;53.960;27.550;2023-03-21T13:11:14;5.03;;;2.80;;
69183;SDS011;56291;53.960;27.550;2023-03-21T13:16:16;3.83;;;2.38;;
69183;SDS011;56291;53.960;27.550;2023-03-21T13:24:48;3.75;;;2.30;;
69183;SDS011;56291;53.960;27.550;2023-03-21T13:27:35;3.63;;;2.30;;
69183;SDS011;56291;53.960;27.550;2023-03-21T13:32:50;3.15;;;2.25;;
69183;SDS011;56291;53.960;27.550;2023-03-21T13:35:37;4.13;;;2.40;;
69183;SDS011;56291;53.960;27.550;2023-03-21T13:38:24;8.55;;;2.10;;
69183;SDS011;56291;53.960;27.550;2023-03-21T13:40:57;3.40;;;2.63;;
69183;SDS011;56291;53.960;27.550;2023-03-21T13:43:53;3.50;;;2.25;;
69183;SDS011;56291;53.960;27.550;2023-03-21T13:56:26;3.75;;;2.58;;
69183;SDS011;56291;53.960;27.550;2023-03-21T13:58:58;4.82;;;2.40;;
69183;SDS011;56291;53.960;27.550;2023-03-21T14:04:11;4.50;;;2.17;;
69183;SDS011;56291;53.960;27.550;2023-03-21T14:07:28;4.30;;;2.00;;
69183;SDS011;56291;53.960;27.550;2023-03-21T14:09:58;7.20;;;3.22;;
69183;SDS011;56291;53.960;27.550;2023-03-21T14:12:39;4.75;;;2.63;;
69183;SDS011;56291;53.960;27.550;2023-03-21T14:15:22;4.90;;;2.80;;
69183;SDS011;56291;53.960;27.550;2023-03-21T14:18:06;4.18;;;2.45;;
69183;SDS011;56291;53.960;27.550;2023-03-21T14:20:39;6.43;;;2.28;;
69183;SDS011;56291;53.960;27.550;2023-03-21T14:23:15;4.20;;;2.72;;
69183;SDS011;56291;53.960;27.550;2023-03-21T14:25:52;3.85;;;2.22;;
69183;SDS011;56291;53.960;27.550;2023-03-21T14:28:23;2.53;;;2.13;;
69183;SDS011;56291;53.960;27.550;2023-03-21T14:30:58;3.70;;;2.13;;
69183;SDS011;56291;53.960;27.550;2023-03-21T14:33:25;3.38;;;2.45;;
69183;SDS011;56291;53.960;27.550;2023-03-21T14:35:57;3.95;;;2.40;;
69183;SDS011;56291;53.960;27.550;2023-03-21T14:38:31;3.33;;;2.13;;
69183;SDS011;56291;53.960;27.550;2023-03-21T14:40:59;2.72;;;2.03;;
69183;SDS011;56291;53.960;27.550;2023-03-21T14:43:26;5.05;;;2.10;;
69183;SDS011;56291;53.960;27.550;2023-03-21T14:45:53;3.75;;;2.05;;
69183;SDS011;56291;53.960;27.550;2023-03-21T14:48:27;4.47;;;2.20;;
69183;SDS011;56291;53.960;27.550;2023-03-21T14:50:55;3.80;;;2.05;;
69183;SDS011;56291;53.960;27.550;2023-03-21T14:56:38;2.28;;;1.90;;
69183;SDS011;56291;53.960;27.550;2023-03-21T14:58:43;3.72;;;2.20;;
69183;SDS011;56291;53.960;27.550;2023-03-21T15:01:27;3.25;;;2.15;;
69183;SDS011;56291;53.960;27.550;2023-03-21T15:03:56;3.13;;;2.10;;
69183;SDS011;56291;53.960;27.550;2023-03-21T15:06:24;5.05;;;2.85;;
69183;SDS011;56291;53.960;27.550;2023-03-21T15:08:57;5.25;;;2.20;;
69183;SDS011;56291;53.960;27.550;2023-03-21T15:11:29;3.60;;;2.13;;
69183;SDS011;56291;53.960;27.550;2023-03-21T15:14:01;3.50;;;2.58;;
69183;SDS011;56291;53.960;27.550;2023-03-21T15:16:33;2.95;;;2.20;;
69183;SDS011;56291;53.960;27.550;2023-03-21T15:19:00;3.13;;;2.35;;
69183;SDS011;56291;53.960;27.550;2023-03-21T15:21:30;4.70;;;2.38;;
69183;SDS011;56291;53.960;27.550;2023-03-21T15:24:06;3.72;;;2.38;;
69183;SDS011;56291;53.960;27.550;2023-03-21T15:26:44;2.50;;;2.00;;
69183;SDS011;56291;53.960;27.550;2023-03-21T15:29:12;3.70;;;2.20;;
69183;SDS011;56291;53.960;27.550;2023-03-21T15:31:40;5.05;;;2.30;;
69183;SDS011;56291;53.960;27.550;2023-03-21T15:36:48;4.13;;;2.13;;
69183;SDS011;56291;53.960;27.550;2023-03-21T15:39:19;3.95;;;2.08;;
69183;SDS011;56291;53.960;27.550;2023-03-21T15:42:01;2.78;;;1.90;;
69183;SDS011;56291;53.960;27.550;2023-03-21T15:44:30;3.23;;;2.13;;
69183;SDS011;56291;53.960;27.550;2023-03-21T15:46:58;2.53;;;2.10;;
69183;SDS011;56291;53.960;27.550;2023-03-21T15:54:50;4.80;;;2.50;;
69183;SDS011;56291;53.960;27.550;2023-03-21T15:57:48;4.50;;;2.58;;
69183;SDS011;56291;53.960;27.550;2023-03-21T16:00:19;3.08;;;2.17;;
69183;SDS011;56291;53.960;27.550;2023-03-21T16:02:55;2.60;;;1.80;;
69183;SDS011;56291;53.960;27.550;2023-03-21T16:05:34;2.80;;;2.08;;
69183;SDS011;56291;53.960;27.550;2023-03-21T16:08:04;2.25;;;1.83;;
69183;SDS011;56291;53.960;27.550;2023-03-21T16:10:45;2.88;;;2.10;;
69183;SDS011;56291;53.960;27.550;2023-03-21T16:13:13;4.38;;;1.77;;
69183;SDS011;56291;53.960;27.550;2023-03-21T16:15:39;2.67;;;1.80;;
69183;SDS011;56291;53.960;27.550;2023-03-21T16:18:05;3.47;;;1.95;;
69183;SDS011;56291;53.960;27.550;2023-03-21T16:20:38;4.88;;;2.00;;
69183;SDS011;56291;53.960;27.550;2023-03-21T16:23:07;3.97;;;1.90;;
69183;SDS011;56291;53.960;27.550;2023-03-21T16:25:39;3.03;;;1.95;;
69183;SDS011;56291;53.960;27.550;2023-03-21T16:28:09;2.78;;;1.70;;
69183;SDS011;56291;53.960;27.550;2023-03-21T16:30:42;2.65;;;1.95;;
69183;SDS011;56291;53.960;27.550;2023-03-21T16:33:09;3.80;;;2.20;;
69183;SDS011;56291;53.960;27.550;2023-03-21T16:35:36;4.10;;;1.92;;
69183;SDS011;56291;53.960;27.550;2023-03-21T16:38:03;3.08;;;2.35;;
69183;SDS011;56291;53.960;27.550;2023-03-21T16:40:33;2.95;;;2.05;;
69183;SDS011;56291;53.960;27.550;2023-03-21T16:43:04;4.20;;;1.90;;
69183;SDS011;56291;53.960;27.550;2023-03-21T16:45:31;2.83;;;1.95;;
69183;SDS011;56291;53.960;27.550;2023-03-21T16:47:58;2.95;;;2.28;;
69183;SDS011;56291;53.960;27.550;2023-03-21T16:50:29;3.17;;;2.00;;
69183;SDS011;56291;53.960;27.550;2023-03-21T16:52:57;2.47;;;2.00;;
69183;SDS011;56291;53.960;27.550;2023-03-21T16:55:24;5.00;;;2.22;;
69183;SDS011;56291;53.960;27.550;2023-03-21T16:57:51;2.85;;;2.20;;
69183;SDS011;56291;53.960;27.550;2023-03-21T17:00:22;4.10;;;1.40;;
69183;SDS011;56291;53.960;27.550;2023-03-21T17:02:51;2.40;;;2.00;;
69183;SDS011;56291;53.960;27.550;2023-03-21T17:05:19;2.30;;;1.75;;
69183;SDS011;56291;53.960;27.550;2023-03-21T17:07:46;5.38;;;1.90;;
69183;SDS011;56291;53.960;27.550;2023-03-21T17:10:17;3.38;;;2.00;;
69183;SDS011;56291;53.960;27.550;2023-03-21T17:12:49;6.60;;;1.60;;
69183;SDS011;56291;53.960;27.550;2023-03-21T17:15:16;2.58;;;1.73;;
69183;SDS011;56291;53.960;27.550;2023-03-21T17:17:43;2.95;;;1.85;;
69183;SDS011;56291;53.960;27.550;2023-03-21T17:20:15;1.95;;;1.70;;
69183;SDS011;56291;53.960;27.550;2023-03-21T17:22:47;4.40;;;2.00;;
69183;SDS011;56291;53.960;27.550;2023-03-21T17:25:14;3.65;;;2.00;;
69183;SDS011;56291;53.960;27.550;2023-03-21T17:27:41;3.72;;;1.98;;
69183;SDS011;56291;53.960;27.550;2023-03-21T17:30:13;2.42;;;1.90;;
69183;SDS011;56291;53.960;27.550;2023-03-21T17:32:45;2.08;;;1.70;;
69183;SDS011;56291;53.960;27.550;2023-03-21T17:35:12;2.80;;;1.80;;
69183;SDS011;56291;53.960;27.550;2023-03-21T17:37:39;1.60;;;1.50;;
69183;SDS011;56291;53.960;27.550;2023-03-21T17:40:06;3.05;;;1.70;;
69183;SDS011;56291;53.960;27.550;2023-03-21T17:42:36;2.75;;;1.92;;
69183;SDS011;56291;53.960;27.550;2023-03-21T17:45:04;2.28;;;1.80;;
69183;SDS011;56291;53.960;27.550;2023-03-21T17:47:30;2.42;;;1.27;;
69183;SDS011;56291;53.960;27.550;2023-03-21T17:49:59;2.95;;;1.77;;
69183;SDS011;56291;53.960;27.550;2023-03-21T17:52:26;3.65;;;2.20;;
69183;SDS011;56291;53.960;27.550;2023-03-21T17:54:52;2.33;;;1.67;;
69183;SDS011;56291;53.960;27.550;2023-03-21T17:57:18;4.78;;;1.80;;
69183;SDS011;56291;53.960;27.550;2023-03-21T17:59:44;4.78;;;1.90;;
69183;SDS011;56291;53.960;27.550;2023-03-21T18:02:10;3.70;;;2.10;;
69183;SDS011;56291;53.960;27.550;2023-03-21T18:04:36;2.88;;;2.00;;
69183;SDS011;56291;53.960;27.550;2023-03-21T18:07:02;3.25;;;1.85;;
69183;SDS011;56291;53.960;27.550;2023-03-21T18:09:31;3.72;;;2.05;;
69183;SDS011;56291;53.960;27.550;2023-03-21T18:11:57;7.20;;;1.98;;
69183;SDS011;56291;53.960;27.550;2023-03-21T18:14:23;5.10;;;2.03;;
69183;SDS011;56291;53.960;27.550;2023-03-21T18:16:49;3.17;;;2.00;;
69183;SDS011;56291;53.960;27.550;2023-03-21T18:19:18;3.70;;;2.00;;
69183;SDS011;56291;53.960;27.550;2023-03-21T18:21:44;3.55;;;1.98;;
69183;SDS011;56291;53.960;27.550;2023-03-21T18:24:10;4.25;;;2.47;;
69183;SDS011;56291;53.960;27.550;2023-03-21T18:26:36;4.93;;;2.00;;
69183;SDS011;56291;53.960;27.550;2023-03-21T18:29:03;3.60;;;2.00;;
69183;SDS011;56291;53.960;27.550;2023-03-21T18:31:29;16.02;;;2.70;;
69183;SDS011;56291;53.960;27.550;2023-03-21T18:33:55;4.13;;;2.25;;
69183;SDS011;56291;53.960;27.550;2023-03-21T18:36:22;5.65;;;2.88;;
69183;SDS011;56291;53.960;27.550;2023-03-21T18:38:49;4.57;;;2.90;;
69183;SDS011;56291;53.960;27.550;2023-03-21T18:41:15;10.27;;;5.28;;
69183;SDS011;56291;53.960;27.550;2023-03-21T18:43:46;16.98;;;7.57;;
69183;SDS011;56291;53.960;27.550;2023-03-21T18:46:13;23.35;;;10.27;;
69183;SDS011;56291;53.960;27.550;2023-03-21T18:48:40;20.30;;;9.77;;
69183;SDS011;56291;53.960;27.550;2023-03-21T18:51:06;17.88;;;7.65;;
69183;SDS011;56291;53.960;27.550;2023-03-21T18:53:34;9.45;;;4.78;;
69183;SDS011;56291;53.960;27.550;2023-03-21T18:56:00;7.68;;;4.35;;
69183;SDS011;56291;53.960;27.550;2023-03-21T18:58:26;6.60;;;3.10;;
69183;SDS011;56291;53.960;27.550;2023-03-21T19:00:53;4.05;;;2.53;;
69183;SDS011;56291;53.960;27.550;2023-03-21T19:03:20;4.90;;;2.90;;
69183;SDS011;56291;53.960;27.550;2023-03-21T19:05:47;5.07;;;2.83;;
69183;SDS011;56291;53.960;27.550;2023-03-21T19:08:13;5.55;;;2.50;;
69183;SDS011;56291;53.960;27.550;2023-03-21T19:10:39;3.78;;;2.50;;
69183;SDS011;56291;53.960;27.550;2023-03-21T19:13:05;10.88;;;2.50;;
69183;SDS011;56291;53.960;27.550;2023-03-21T19:15:32;7.57;;;3.03;;
69183;SDS011;56291;53.960;27.550;2023-03-21T19:17:58;6.50;;;2.92;;
69183;SDS011;56291;53.960;27.550;2023-03-21T19:20:24;6.05;;;3.22;;
69183;SDS011;56291;53.960;27.550;2023-03-21T19:22:52;5.60;;;3.15;;
69183;SDS011;56291;53.960;27.550;2023-03-21T19:25:19;4.53;;;2.58;;
69183;SDS011;56291;53.960;27.550;2023-03-21T19:27:45;4.13;;;2.53;;
69183;SDS011;56291;53.960;27.550;2023-03-21T19:30:12;4.65;;;2.88;;
69183;SDS011;56291;53.960;27.550;2023-03-21T19:32:39;4.55;;;2.40;;
69183;SDS011;56291;53.960;27.550;2023-03-21T19:35:05;4.25;;;2.55;;
69183;SDS011;56291;53.960;27.550;2023-03-21T19:37:31;3.67;;;2.60;;
69183;SDS011;56291;53.960;27.550;2023-03-21T19:40:00;5.15;;;3.13;;
69183;SDS011;56291;53.960;27.550;2023-03-21T19:42:27;3.10;;;2.20;;
69183;SDS011;56291;53.960;27.550;2023-03-21T19:44:53;7.97;;;2.63;;
69183;SDS011;56291;53.960;27.550;2023-03-21T19:47:19;4.70;;;2.60;;
69183;SDS011;56291;53.960;27.550;2023-03-21T19:49:45;3.67;;;2.28;;
69183;SDS011;56291;53.960;27.550;2023-03-21T19:52:11;5.32;;;2.63;;
69183;SDS011;56291;53.960;27.550;2023-03-21T19:54:38;4.45;;;2.58;;
69183;SDS011;56291;53.960;27.550;2023-03-21T19:57:04;3.33;;;2.03;;
69183;SDS011;56291;53.960;27.550;2023-03-21T19:59:30;6.53;;;2.58;;
69183;SDS011;56291;53.960;27.550;2023-03-21T20:01:56;5.38;;;3.03;;
69183;SDS011;56291;53.960;27.550;2023-03-21T20:04:23;4.60;;;2.10;;
69183;SDS011;56291;53.960;27.550;2023-03-21T20:06:52;6.82;;;1.85;;
69183;SDS011;56291;53.960;27.550;2023-03-21T20:09:21;4.43;;;2.35;;
69183;SDS011;56291;53.960;27.550;2023-03-21T20:11:47;3.65;;;2.50;;
69183;SDS011;56291;53.960;27.550;2023-03-21T20:14:14;5.40;;;2.47;;
69183;SDS011;56291;53.960;27.550;2023-03-21T20:16:41;3.55;;;2.25;;
69183;SDS011;56291;53.960;27.550;2023-03-21T20:19:09;3.13;;;2.08;;
69183;SDS011;56291;53.960;27.550;2023-03-21T20:21:38;3.65;;;2.10;;
69183;SDS011;56291;53.960;27.550;2023-03-21T20:24:04;5.00;;;2.55;;
69183;SDS011;56291;53.960;27.550;2023-03-21T20:26:31;4.00;;;2.40;;
69183;SDS011;56291;53.960;27.550;2023-03-21T20:28:58;4.57;;;2.50;;
69183;SDS011;56291;53.960;27.550;2023-03-21T20:31:24;4.93;;;2.60;;
69183;SDS011;56291;53.960;27.550;2023-03-21T20:33:51;3.97;;;2.58;;
69183;SDS011;56291;53.960;27.550;2023-03-21T20:36:17;5.22;;;2.70;;
69183;SDS011;56291;53.960;27.550;2023-03-21T20:38:46;3.92;;;2.30;;
69183;SDS011;56291;53.960;27.550;2023-03-21T20:41:12;4.60;;;2.90;;
69183;SDS011;56291;53.960;27.550;2023-03-21T20:43:38;4.78;;;2.42;;
69183;SDS011;56291;53.960;27.550;2023-03-21T20:46:06;5.28;;;2.67;;
69183;SDS011;56291;53.960;27.550;2023-03-21T20:48:34;6.75;;;3.00;;
69183;SDS011;56291;53.960;27.550;2023-03-21T20:51:09;5.55;;;3.40;;
69183;SDS011;56291;53.960;27.550;2023-03-21T20:53:36;4.80;;;2.95;;
69183;SDS011;56291;53.960;27.550;2023-03-21T20:56:04;4.18;;;2.78;;
69183;SDS011;56291;53.960;27.550;2023-03-21T20:58:31;7.45;;;3.20;;
69183;SDS011;56291;53.960;27.550;2023-03-21T21:01:02;4.32;;;2.88;;
69183;SDS011;56291;53.960;27.550;2023-03-21T21:03:30;4.65;;;3.10;;
